Dades meteomassalio
Diari Summary for Juny 28, 2017 Units:  English    Metric   Both
« Previous Day
Next Day »
Diari Semanal Mensual Anual Personalitzat
  Maxima: Minima: Mijana:
Temperatura: TemperatureC °F 18.9 °F 24 °F
Rosada: DewpointC °F 5.3 °F 11.7 °F
Humitat: Humidity % 27 % 48 %
Velocitat del vent: WindSpeedKMH mph 0.0 mph 18.3 mph
Racha vent: WindSpeedGustKMH mph - -
Vent:- - WNW
Pressio: PressurehPa in 1002.3 in -
Pluja: 0.0 in    
Historical Graphs
 
 
Tabular Data for Juny 28, 2017
Time Temperature Dew Point Pressure Wind Wind Speed Wind Gust Humidity Rainfall Rate (Hourly) solar Conditions
TemperatureC °F DewpointC °F PressurehPa in Calm     Humidity % HourlyPrecipMM in SolarRadiationWatts/m^2 W/m2 Conditions
00:01 24.0 °F 13.2 °F 1006.7 in WSW 9.3 mph 9.3 mph 51 % 0.0 in 0.0 W/m2 CLR
00:06 23.9 °F 13.1 °F 1006.7 in Calm     51 % 0.0 in 0.0 W/m2 CLR
00:11 23.8 °F 13.3 °F 1007.0 in Calm     52 % 0.0 in 0.0 W/m2 CLR
00:16 23.6 °F 13.4 °F 1006.7 in West 7.4 mph 7.4 mph 53 % 0.0 in 0.0 W/m2 CLR
00:21 23.5 °F 13.7 °F 1006.7 in WNW 11.1 mph 11.1 mph 54 % 0.0 in 0.0 W/m2 CLR
00:26 23.4 °F 13.6 °F 1007.0 in West 13.0 mph 13.0 mph 54 % 0.0 in 0.0 W/m2 CLR
00:31 23.3 °F 13.8 °F 1007.0 in West 9.7 mph 9.7 mph 55 % 0.0 in 0.0 W/m2 CLR
00:36 23.3 °F 13.7 °F 1007.0 in WNW 14.8 mph 14.8 mph 55 % 0.0 in 0.0 W/m2 CLR
00:41 23.3 °F 13.7 °F 1007.0 in WNW 13.0 mph 13.0 mph 55 % 0.0 in 0.0 W/m2 CLR
00:42 23.3 °F 13.7 °F 1007.0 in West 18.5 mph 18.5 mph 55 % 0.0 in 0.0 W/m2 CLR
00:47 23.2 °F 13.7 °F 1007.0 in West 9.3 mph 9.3 mph 55 % 0.0 in 0.0 W/m2 CLR
00:52 23.1 °F 13.6 °F 1007.0 in WNW 7.4 mph 7.4 mph 55 % 0.0 in 0.0 W/m2 CLR
00:57 23.0 °F 13.4 °F 1007.0 in West 11.1 mph 11.1 mph 55 % 0.0 in 0.0 W/m2 CLR
01:02 22.9 °F 13.7 °F 1007.0 in West 13.0 mph 13.0 mph 56 % 0.0 in 0.0 W/m2 CLR
01:07 22.9 °F 13.7 °F 1007.0 in West 7.4 mph 7.4 mph 56 % 0.0 in 0.0 W/m2 CLR
01:12 22.9 °F 13.7 °F 1007.0 in WNW 16.7 mph 16.7 mph 56 % 0.0 in 0.0 W/m2 CLR
01:17 22.9 °F 13.7 °F 1007.3 in WSW 7.4 mph 7.4 mph 56 % 0.0 in 0.0 W/m2 CLR
01:22 22.9 °F 13.7 °F 1007.0 in West 5.6 mph 5.6 mph 56 % 0.0 in 0.0 W/m2 CLR
01:27 22.9 °F 13.7 °F 1007.3 in WSW 5.6 mph 5.6 mph 56 % 0.0 in 0.0 W/m2 CLR
01:32 22.9 °F 13.7 °F 1007.3 in West 13.0 mph 13.0 mph 56 % 0.0 in 0.0 W/m2 CLR
01:37 22.9 °F 13.7 °F 1007.3 in West 11.1 mph 11.1 mph 56 % 0.0 in 0.0 W/m2 CLR
01:42 22.8 °F 13.6 °F 1007.3 in WNW 6.4 mph 6.4 mph 56 % 0.0 in 0.0 W/m2 CLR
01:47 22.7 °F 13.8 °F 1007.3 in WNW 5.6 mph   57 % 0.0 in 0.0 W/m2 CLR
01:52 22.6 °F 13.7 °F 1007.3 in Calm     57 % 0.0 in 0.0 W/m2 CLR
01:57 22.6 °F 13.6 °F 1007.3 in Calm     57 % 0.0 in 0.0 W/m2 CLR
02:02 22.4 °F 13.8 °F 1007.3 in Calm     58 % 0.0 in 0.0 W/m2 CLR
02:07 22.4 °F 13.7 °F 1007.0 in Calm     58 % 0.0 in 0.0 W/m2 CLR
02:12 22.3 °F 13.7 °F 1007.0 in Calm     58 % 0.0 in 0.0 W/m2 CLR
02:17 22.3 °F 13.7 °F 1007.0 in Calm     58 % 0.0 in 0.0 W/m2 CLR
02:22 22.2 °F 13.6 °F 1007.0 in Calm     58 % 0.0 in 0.0 W/m2 CLR
02:27 22.1 °F 13.7 °F 1007.0 in Calm     59 % 0.0 in 0.0 W/m2 CLR
02:32 21.9 °F 13.6 °F 1007.0 in Calm     59 % 0.0 in 0.0 W/m2 CLR
02:37 21.8 °F 13.7 °F 1007.0 in Calm     60 % 0.0 in 0.0 W/m2 CLR
02:42 21.8 °F 13.7 °F 1007.0 in Calm     60 % 0.0 in 0.0 W/m2 CLR
02:47 21.8 °F 13.7 °F 1007.0 in Calm     60 % 0.0 in 0.0 W/m2 CLR
02:52 21.8 °F 13.7 °F 1007.0 in Calm     60 % 0.0 in 0.0 W/m2 CLR
02:57 21.7 °F 13.6 °F 1007.0 in Calm     60 % 0.0 in 0.0 W/m2 CLR
03:02 21.6 °F 13.7 °F 1007.0 in Calm     61 % 0.0 in 0.0 W/m2 CLR
03:07 21.5 °F 13.7 °F 1007.0 in Calm     61 % 0.0 in 0.0 W/m2 CLR
03:12 21.4 °F 13.8 °F 1007.0 in West 5.6 mph   62 % 0.0 in 0.0 W/m2 CLR
03:17 21.4 °F 13.8 °F 1007.0 in Calm   0.3 mph 62 % 0.0 in 0.0 W/m2 CLR
03:18 21.4 °F 13.8 °F 1007.0 in NW 6.4 mph 6.4 mph 62 % 0.0 in 0.0 W/m2 CLR
03:23 21.4 °F 13.8 °F 1007.0 in WNW 3.7 mph 3.7 mph 62 % 0.0 in 0.0 W/m2 CLR
03:28 21.4 °F 13.8 °F 1006.7 in West 3.2 mph 3.2 mph 62 % 0.0 in 0.0 W/m2 CLR
03:33 21.3 °F 13.8 °F 1006.7 in WNW 3.2 mph 3.2 mph 62 % 0.0 in 0.0 W/m2 CLR
03:38 21.3 °F 13.7 °F 1006.7 in West 5.6 mph   62 % 0.0 in 0.0 W/m2 CLR
03:43 21.2 °F 13.9 °F 1006.7 in WNW 6.4 mph 6.4 mph 63 % 0.0 in 0.0 W/m2 CLR
03:48 21.1 °F 13.8 °F 1006.7 in West 4.8 mph 4.8 mph 63 % 0.0 in 0.0 W/m2 CLR
03:53 21.1 °F 13.7 °F 1006.7 in Calm     63 % 0.0 in 0.0 W/m2 CLR
03:58 20.9 °F 13.9 °F 1006.7 in WNW 5.6 mph   64 % 0.0 in 0.0 W/m2 CLR
04:03 20.8 °F 13.8 °F 1006.7 in WNW 5.6 mph 5.6 mph 64 % 0.0 in 0.0 W/m2 CLR
04:08 20.8 °F 13.7 °F 1006.7 in WNW 6.4 mph 6.4 mph 64 % 0.0 in 0.0 W/m2 CLR
04:13 20.7 °F 13.7 °F 1006.3 in WNW 5.6 mph 5.6 mph 64 % 0.0 in 0.0 W/m2 CLR
04:18 20.8 °F 13.7 °F 1006.3 in Calm     64 % 0.0 in 0.0 W/m2 CLR
04:23 20.7 °F 13.7 °F 1006.3 in Calm     64 % 0.0 in 0.0 W/m2 CLR
04:28 20.6 °F 13.7 °F 1006.3 in Calm     65 % 0.0 in 0.0 W/m2 CLR
04:33 20.3 °F 13.8 °F 1006.3 in Calm     66 % 0.0 in 0.0 W/m2 CLR
04:38 20.2 °F 13.7 °F 1006.3 in Calm     66 % 0.0 in 0.0 W/m2 CLR
04:43 20.1 °F 13.8 °F 1006.3 in West 7.4 mph 7.4 mph 67 % 0.0 in 0.0 W/m2 CLR
04:49 20.1 °F 14.0 °F 1006.3 in WSW 9.3 mph 9.3 mph 68 % 0.0 in 0.0 W/m2 CLR
04:54 20.2 °F 14.1 °F 1006.3 in SW 7.4 mph 7.4 mph 68 % 0.0 in 0.0 W/m2 CLR
04:59 20.1 °F 14.0 °F 1006.3 in West 6.4 mph 6.4 mph 68 % 0.0 in 0.0 W/m2 CLR
05:04 20.1 °F 14.2 °F 1006.3 in Calm     69 % 0.0 in 0.0 W/m2 CLR
05:09 20.0 °F 14.1 °F 1006.3 in Calm     69 % 0.0 in 0.0 W/m2 CLR
05:14 20.0 °F 14.1 °F 1006.3 in West 5.6 mph 5.6 mph 69 % 0.0 in 0.0 W/m2 CLR
05:19 20.0 °F 14.1 °F 1006.3 in WSW 5.6 mph 5.6 mph 69 % 0.0 in 0.0 W/m2 CLR
05:24 20.0 °F 14.1 °F 1006.3 in WNW 9.7 mph 9.7 mph 69 % 0.0 in 0.0 W/m2 CLR
05:29 20.0 °F 13.9 °F 1006.3 in West 1.9 mph   68 % 0.0 in 0.0 W/m2 CLR
05:34 20.1 °F 13.6 °F 1006.3 in WNW 13.0 mph 13.0 mph 66 % 0.0 in 0.0 W/m2 CLR
05:39 20.3 °F 13.2 °F 1006.3 in NW 20.4 mph 20.4 mph 64 % 0.0 in 0.0 W/m2 CLR
05:44 20.5 °F 13.2 °F 1006.3 in WNW 20.4 mph 20.4 mph 63 % 0.0 in 0.0 W/m2 CLR
05:49 20.7 °F 13.1 °F 1006.3 in WNW 24.1 mph 24.1 mph 62 % 0.0 in 0.0 W/m2 CLR
05:54 20.7 °F 13.2 °F 1006.3 in WNW 22.2 mph 22.2 mph 62 % 0.0 in 0.0 W/m2 CLR
05:59 20.6 °F 13.1 °F 1006.3 in NW 22.2 mph 22.2 mph 62 % 0.0 in 0.0 W/m2 CLR
06:04 20.5 °F 12.9 °F 1006.3 in West 19.3 mph 19.3 mph 62 % 0.0 in 0.0 W/m2 CLR
06:09 20.3 °F 13.1 °F 1006.3 in WNW 18.5 mph 18.5 mph 63 % 0.0 in 0.0 W/m2 CLR
06:14 20.2 °F 13.1 °F 1006.3 in WNW 18.5 mph 18.5 mph 64 % 0.0 in 0.0 W/m2 CLR
06:19 20.1 °F 13.3 °F 1006.3 in WNW 14.8 mph 14.8 mph 65 % 0.0 in 0.0 W/m2 OVC
06:24 19.9 °F 13.6 °F 1006.3 in WNW 16.7 mph 16.7 mph 67 % 0.0 in 0.0 W/m2 OVC
06:29 19.8 °F 13.4 °F 1006.3 in NW 9.3 mph 9.3 mph 67 % 0.0 in 0.0 W/m2 OVC
06:34 19.6 °F 13.5 °F 1006.3 in NW 7.4 mph 7.4 mph 68 % 0.0 in 7.0 W/m2 BKN
06:39 19.5 °F 13.7 °F 1006.3 in NW 12.9 mph 12.9 mph 69 % 0.0 in 7.0 W/m2 BKN
06:44 19.4 °F 13.8 °F 1006.7 in NW 14.8 mph 14.8 mph 70 % 0.0 in 11.0 W/m2 BKN
06:49 19.4 °F 14.1 °F 1006.3 in WNW 14.8 mph 14.8 mph 71 % 0.0 in 11.0 W/m2 BKN
06:54 19.5 °F 14.1 °F 1006.3 in WNW 13.0 mph 13.0 mph 71 % 0.0 in 11.0 W/m2 BKN
06:59 19.5 °F 14.1 °F 1006.7 in WNW 11.1 mph 11.1 mph 71 % 0.0 in 11.0 W/m2 BKN
07:04 19.4 °F 14.2 °F 1006.7 in NW 7.4 mph 7.4 mph 72 % 0.0 in 12.0 W/m2 BKN
07:09 19.2 °F 14.1 °F 1006.7 in NW 7.4 mph 7.4 mph 72 % 0.0 in 12.0 W/m2 BKN
07:14 19.1 °F 14.2 °F 1006.7 in Calm   1.6 mph 73 % 0.0 in 21.0 W/m2 BKN
07:19 19.0 °F 14.1 °F 1006.7 in WNW 5.6 mph 5.6 mph 73 % 0.0 in 28.0 W/m2 BKN
07:24 18.9 °F 14.0 °F 1006.7 in West 7.4 mph 7.4 mph 73 % 0.0 in 30.0 W/m2 BKN
07:29 18.9 °F 13.9 °F 1006.7 in WNW 5.6 mph 5.6 mph 73 % 0.0 in 74.0 W/m2 FEW
07:34 19.0 °F 14.1 °F 1006.7 in NW 5.6 mph 5.6 mph 73 % 0.0 in 91.0 W/m2 SCT
07:39 19.1 °F 13.9 °F 1006.7 in NW 7.4 mph 7.4 mph 72 % 0.0 in 39.0 W/m2 CLR
07:44 19.1 °F 13.9 °F 1006.7 in North 6.4 mph 6.4 mph 72 % 0.0 in 95.0 W/m2 FEW
07:49 19.1 °F 13.9 °F 1006.7 in NW 11.1 mph 11.1 mph 72 % 0.0 in 63.0 W/m2 SCT
07:54 19.2 °F 14.0 °F 1006.7 in NW 5.6 mph 5.6 mph 72 % 0.0 in 102.0 W/m2 FEW
07:59 19.2 °F 14.1 °F 1007.0 in NW 9.3 mph 9.3 mph 72 % 0.0 in 195.0 W/m2 CLR
08:04 19.3 °F 14.2 °F 1007.0 in Calm     72 % 0.0 in 114.0 W/m2 CLR
08:09 19.4 °F 14.3 °F 1007.0 in NNW 14.8 mph 14.8 mph 72 % 0.0 in 220.0 W/m2 CLR
08:14 19.6 °F 14.2 °F 1007.0 in NW 13.0 mph 13.0 mph 71 % 0.0 in 221.0 W/m2 CLR
08:19 19.6 °F 14.2 °F 1007.0 in NNW 7.4 mph 7.4 mph 71 % 0.0 in 244.0 W/m2 FEW
08:25 19.8 °F 14.6 °F 1007.0 in NW 9.3 mph 9.3 mph 72 % 0.0 in 232.0 W/m2 FEW
08:30 19.9 °F 14.5 °F 1007.0 in NW 11.1 mph 11.1 mph 71 % 0.0 in 97.0 W/m2 CLR
08:35 20.0 °F 14.3 °F 1007.0 in NNW 14.8 mph 14.8 mph 70 % 0.0 in 339.0 W/m2 CLR
08:40 20.0 °F 14.3 °F 1007.0 in NW 18.5 mph 18.5 mph 70 % 0.0 in 79.0 W/m2 CLR
08:45 19.9 °F 14.3 °F 1007.0 in WNW 7.4 mph 7.4 mph 70 % 0.0 in 118.0 W/m2 CLR
08:50 20.1 °F 14.4 °F 1006.7 in NW 5.6 mph 5.6 mph 70 % 0.0 in 330.0 W/m2 CLR
08:55 20.4 °F 14.3 °F 1006.7 in NW 13.0 mph 13.0 mph 68 % 0.0 in 355.0 W/m2 CLR
09:00 20.6 °F 14.5 °F 1006.7 in NW 9.7 mph 9.7 mph 68 % 0.0 in 390.0 W/m2 CLR
09:05 20.8 °F 14.2 °F 1007.0 in NW 14.8 mph 14.8 mph 66 % 0.0 in 411.0 W/m2 CLR
09:10 21.1 °F 14.7 °F 1007.0 in NW 16.1 mph 16.1 mph 67 % 0.0 in 424.0 W/m2 CLR
09:15 21.2 °F 14.4 °F 1006.7 in WNW 18.5 mph 18.5 mph 65 % 0.0 in 424.0 W/m2 CLR
09:20 21.4 °F 14.3 °F 1006.7 in NW 11.1 mph 11.1 mph 64 % 0.0 in 429.0 W/m2 CLR
09:25 21.6 °F 14.2 °F 1006.7 in NW 3.7 mph   63 % 0.0 in 443.0 W/m2 CLR
09:30 21.7 °F 14.4 °F 1006.7 in WNW 5.6 mph 5.6 mph 63 % 0.0 in 452.0 W/m2 CLR
09:35 21.9 °F 14.6 °F 1006.7 in Calm     63 % 0.0 in 462.0 W/m2 CLR
09:40 22.2 °F 14.3 °F 1006.7 in NW 13.0 mph 13.0 mph 61 % 0.0 in 483.0 W/m2 CLR
09:45 22.3 °F 14.1 °F 1006.7 in NNW 16.7 mph 16.7 mph 60 % 0.0 in 508.0 W/m2 CLR
09:50 22.3 °F 13.9 °F 1006.7 in NW 22.2 mph 22.2 mph 59 % 0.0 in 529.0 W/m2 CLR
09:55 22.4 °F 13.8 °F 1006.7 in WNW 11.1 mph 11.1 mph 58 % 0.0 in 547.0 W/m2 CLR
09:56 22.5 °F 13.8 °F 1006.7 in WNW 20.4 mph 20.4 mph 58 % 0.0 in 543.0 W/m2 CLR
10:01 22.6 °F 13.9 °F 1006.7 in WNW 16.7 mph 16.7 mph 58 % 0.0 in 585.0 W/m2 CLR
10:06 22.9 °F 13.7 °F 1006.7 in WNW 18.5 mph 18.5 mph 56 % 0.0 in 687.0 W/m2 CLR
10:11 22.7 °F 13.8 °F 1006.3 in NW 8.0 mph 8.0 mph 57 % 0.0 in 608.0 W/m2 CLR
10:16 22.7 °F 13.5 °F 1006.3 in NW 13.0 mph   56 % 0.0 in 592.0 W/m2 CLR
10:21 23.0 °F 13.7 °F 1006.3 in West 9.7 mph 9.7 mph 56 % 0.0 in 603.0 W/m2 CLR
10:26 23.1 °F 13.0 °F 1006.0 in NW 31.5 mph 31.5 mph 53 % 0.0 in 619.0 W/m2 CLR
10:31 23.2 °F 12.8 °F 1006.3 in NNW 19.3 mph 19.3 mph 52 % 0.0 in 633.0 W/m2 CLR
10:36 23.3 °F 13.2 °F 1006.0 in NW 24.1 mph 24.1 mph 53 % 0.0 in 647.0 W/m2 CLR
10:41 23.4 °F 12.9 °F 1006.0 in WNW 16.7 mph 16.7 mph 52 % 0.0 in 661.0 W/m2 CLR
10:46 23.6 °F 13.2 °F 1006.0 in West 13.0 mph 13.0 mph 52 % 0.0 in 686.0 W/m2 CLR
10:51 23.8 °F 13.1 °F 1006.0 in NW 9.3 mph 9.3 mph 51 % 0.0 in 691.0 W/m2 CLR
10:56 24.0 °F 12.9 °F 1006.0 in WNW 22.2 mph 22.2 mph 50 % 0.0 in 717.0 W/m2 CLR
11:01 24.0 °F 12.9 °F 1006.0 in WNW 24.1 mph 24.1 mph 50 % 0.0 in 749.0 W/m2 CLR
11:06 24.1 °F 12.7 °F 1006.0 in NNW 18.5 mph 18.5 mph 49 % 0.0 in 784.0 W/m2 CLR
11:11 24.2 °F 12.8 °F 1006.0 in NW 33.3 mph 33.3 mph 49 % 0.0 in 772.0 W/m2 CLR
11:16 24.2 °F 12.8 °F 1006.0 in WNW 18.5 mph 18.5 mph 49 % 0.0 in 775.0 W/m2 CLR
11:21 24.6 °F 13.1 °F 1005.6 in NW 20.4 mph 20.4 mph 49 % 0.0 in 819.0 W/m2 CLR
11:26 24.6 °F 13.1 °F 1005.6 in NW 20.4 mph 20.4 mph 49 % 0.0 in 828.0 W/m2 CLR
11:31 24.6 °F 13.2 °F 1006.0 in NW 18.5 mph 18.5 mph 49 % 0.0 in 830.0 W/m2 CLR
11:36 24.6 °F 13.1 °F 1005.6 in West 5.6 mph 5.6 mph 49 % 0.0 in 881.0 W/m2 CLR
11:41 24.7 °F 13.3 °F 1005.6 in NNW 18.5 mph 18.5 mph 49 % 0.0 in 911.0 W/m2 CLR
11:46 24.8 °F 13.4 °F 1005.6 in NW 11.1 mph 11.1 mph 49 % 0.0 in 882.0 W/m2 CLR
11:51 25.1 °F 12.7 °F 1005.6 in West 13.0 mph 13.0 mph 46 % 0.0 in 204.0 W/m2 CLR
11:56 24.7 °F 12.9 °F 1005.6 in WNW 18.5 mph 18.5 mph 48 % 0.0 in 209.0 W/m2 CLR
12:01 24.8 °F 12.4 °F 1005.6 in WNW 20.4 mph 20.4 mph 46 % 0.0 in 904.0 W/m2 CLR
12:06 25.2 °F 12.7 °F 1005.6 in NW 16.7 mph 16.7 mph 46 % 0.0 in 898.0 W/m2 CLR
12:11 25.1 °F 12.7 °F 1005.6 in WNW 18.5 mph 18.5 mph 46 % 0.0 in 914.0 W/m2 CLR
12:16 25.4 °F 12.9 °F 1005.3 in NW 18.5 mph 18.5 mph 46 % 0.0 in 1016.0 W/m2 CLR
12:21 25.8 °F 12.9 °F 1005.3 in North 18.5 mph 18.5 mph 45 % 0.0 in 1005.0 W/m2 CLR
12:26 25.9 °F 13.1 °F 1005.3 in NW 16.7 mph 16.7 mph 45 % 0.0 in 944.0 W/m2 CLR
12:31 26.1 °F 12.8 °F 1005.3 in West 18.5 mph 18.5 mph 44 % 0.0 in 355.0 W/m2 CLR
12:36 26.0 °F 12.8 °F 1005.3 in North 14.5 mph 14.5 mph 44 % 0.0 in 276.0 W/m2 CLR
12:41 26.0 °F 12.8 °F 1005.3 in NNW 20.9 mph 20.9 mph 44 % 0.0 in 276.0 W/m2 CLR
12:46 25.8 °F 12.7 °F 1005.3 in NNW 22.5 mph 22.5 mph 44 % 0.0 in 431.0 W/m2 CLR
12:51 26.0 °F 13.2 °F 1005.3 in NNW 13.0 mph 13.0 mph 45 % 0.0 in 1125.0 W/m2 CLR
12:56 26.4 °F 13.2 °F 1005.0 in NW 13.0 mph 13.0 mph 44 % 0.0 in 1002.0 W/m2 CLR
13:01 26.8 °F 12.5 °F 1005.0 in West 18.5 mph 18.5 mph 41 % 0.0 in 1076.0 W/m2 CLR
13:03 27.0 °F 12.6 °F 1005.0 in West 25.9 mph 25.9 mph 41 % 0.0 in 1120.0 W/m2 CLR
13:08 27.1 °F 12.7 °F 1004.6 in NNW 18.5 mph 18.5 mph 41 % 0.0 in 211.0 W/m2 CLR
13:13 26.6 °F 12.6 °F 1005.0 in WNW 18.5 mph 18.5 mph 42 % 0.0 in 244.0 W/m2 CLR
13:18 26.3 °F 12.0 °F 1004.6 in NW 17.7 mph 17.7 mph 41 % 0.0 in 1118.0 W/m2 CLR
13:23 26.8 °F 12.1 °F 1004.6 in NW 18.5 mph 18.5 mph 40 % 0.0 in 1192.0 W/m2 CLR
13:29 26.8 °F 12.1 °F 1004.6 in West 18.5 mph 18.5 mph 40 % 0.0 in 258.0 W/m2 CLR
13:34 26.9 °F 11.4 °F 1004.6 in NW 18.5 mph 18.5 mph 38 % 0.0 in 309.0 W/m2 CLR
13:44 27.2 °F 11.2 °F 1004.6 in NW 20.4 mph 20.4 mph 37 % 0.0 in 434.0 W/m2 CLR
13:49 27.4 °F 11.1 °F 1004.6 in NNW 33.8 mph 33.8 mph 36 % 0.0 in 258.0 W/m2 CLR
13:59 27.6 °F 10.8 °F 1004.3 in NNW 20.9 mph 20.9 mph 35 % 0.0 in 1111.0 W/m2 CLR
14:04 27.9 °F 11.1 °F 1004.3 in NNW 24.1 mph 24.1 mph 35 % 0.0 in 246.0 W/m2 CLR
14:09 28.0 °F 10.7 °F 1004.3 in WNW 31.5 mph 31.5 mph 34 % 0.0 in 1253.0 W/m2 CLR
14:14 28.2 °F 9.9 °F 1004.3 in WNW 20.4 mph 20.4 mph 32 % 0.0 in 360.0 W/m2 CLR
14:19 28.2 °F 9.9 °F 1004.3 in West 37.0 mph 37.0 mph 32 % 0.0 in 1164.0 W/m2 CLR
14:24 28.3 °F 10.0 °F 1004.3 in WNW 25.9 mph 25.9 mph 32 % 0.0 in 1083.0 W/m2 CLR
14:29 28.7 °F 9.9 °F 1004.3 in WNW 22.2 mph 22.2 mph 31 % 0.0 in 1081.0 W/m2 CLR
14:34 28.9 °F 10.1 °F 1003.9 in NNW 25.9 mph 25.9 mph 31 % 0.0 in 1039.0 W/m2 CLR
14:39 28.6 °F 9.8 °F 1003.9 in NW 22.2 mph 22.2 mph 31 % 0.0 in 315.0 W/m2 CLR
14:44 28.2 °F 9.9 °F 1003.9 in NW 33.3 mph 33.3 mph 32 % 0.0 in 492.0 W/m2 CLR
14:49 28.1 °F 9.8 °F 1003.9 in NW 33.3 mph 33.3 mph 32 % 0.0 in 1169.0 W/m2 CLR
14:54 28.4 °F 10.2 °F 1003.9 in NNW 29.6 mph 29.6 mph 32 % 0.0 in 248.0 W/m2 CLR
14:59 28.6 °F 9.8 °F 1003.9 in NW 31.5 mph 31.5 mph 31 % 0.0 in 290.0 W/m2 CLR
15:04 27.9 °F 9.7 °F 1003.9 in NW 20.4 mph 20.4 mph 32 % 0.0 in 1090.0 W/m2 CLR
15:09 28.2 °F 9.9 °F 1003.9 in WNW 25.9 mph 25.9 mph 32 % 0.0 in 1090.0 W/m2 CLR
15:14 28.4 °F 9.6 °F 1003.9 in WNW 16.7 mph 16.7 mph 31 % 0.0 in 450.0 W/m2 CLR
15:15 28.4 °F 9.7 °F 1003.6 in NW 16.7 mph 16.7 mph 31 % 0.0 in 450.0 W/m2 CLR
15:20 29.1 °F 9.8 °F 1003.6 in North 25.7 mph 25.7 mph 30 % 0.0 in 1099.0 W/m2 CLR
15:25 29.5 °F 9.6 °F 1003.6 in WNW 31.5 mph 31.5 mph 29 % 0.0 in 1037.0 W/m2 CLR
15:30 29.4 °F 9.5 °F 1003.3 in NW 44.4 mph 44.4 mph 29 % 0.0 in 1000.0 W/m2 CLR
15:35 29.4 °F 9.6 °F 1003.6 in WNW 31.5 mph 31.5 mph 29 % 0.0 in 1004.0 W/m2 CLR
15:40 29.4 °F 9.0 °F 1003.6 in NW 31.5 mph 31.5 mph 28 % 0.0 in 325.0 W/m2 CLR
15:45 28.7 °F 8.9 °F 1003.3 in NW 27.8 mph 27.8 mph 29 % 0.0 in 214.0 W/m2 CLR
15:50 28.8 °F 9.5 °F 1003.3 in WNW 33.3 mph 33.3 mph 30 % 0.0 in 1039.0 W/m2 CLR
15:55 29.1 °F 9.2 °F 1003.3 in NNW 31.5 mph 31.5 mph 29 % 0.0 in 1118.0 W/m2 CLR
16:00 29.4 °F 9.0 °F 1002.9 in WSW 20.4 mph 20.4 mph 28 % 0.0 in 264.0 W/m2 CLR
16:05 29.0 °F 8.1 °F 1002.9 in NNW 33.3 mph 33.3 mph 27 % 0.0 in 142.0 W/m2 CLR
16:10 28.3 °F 8.0 °F 1003.3 in NW 33.3 mph 33.3 mph 28 % 0.0 in 95.0 W/m2 CLR
16:12 28.1 °F 7.9 °F 1003.3 in NNW 29.6 mph 29.6 mph 28 % 0.0 in 98.0 W/m2 CLR
16:17 27.7 °F 9.9 °F 1003.3 in NW 31.5 mph 31.5 mph 33 % 0.0 in 86.0 W/m2 CLR
16:22 26.9 °F 9.3 °F 1003.3 in NNW 33.3 mph 33.3 mph 33 % 0.0 in 130.0 W/m2 CLR
16:27 27.0 °F 10.7 °F 1003.3 in NW 19.3 mph 19.3 mph 36 % 0.0 in 214.0 W/m2 CLR
16:32 27.7 °F 9.5 °F 1002.9 in WNW 24.1 mph 24.1 mph 32 % 0.0 in 396.0 W/m2 CLR
16:37 27.9 °F 9.2 °F 1003.3 in WNW 29.6 mph 29.6 mph 31 % 0.0 in 404.0 W/m2 CLR
16:42 28.1 °F 9.4 °F 1002.9 in WNW 18.5 mph 18.5 mph 31 % 0.0 in 381.0 W/m2 CLR
16:47 28.2 °F 9.4 °F 1002.9 in NW 24.1 mph 24.1 mph 31 % 0.0 in 294.0 W/m2 CLR
16:52 28.1 °F 9.8 °F 1002.6 in NW 22.5 mph 22.5 mph 32 % 0.0 in 258.0 W/m2 CLR
16:57 27.9 °F 10.1 °F 1002.6 in NW 27.8 mph 27.8 mph 33 % 0.0 in 258.0 W/m2 CLR
17:02 27.8 °F 10.1 °F 1002.6 in WNW 20.4 mph 20.4 mph 33 % 0.0 in 234.0 W/m2 CLR
17:07 27.8 °F 9.6 °F 1002.6 in NW 16.7 mph 16.7 mph 32 % 0.0 in 193.0 W/m2 CLR
17:12 28.1 °F 10.3 °F 1002.6 in NNW 35.2 mph 35.2 mph 33 % 0.0 in 206.0 W/m2 CLR
17:17 28.3 °F 10.1 °F 1002.9 in WNW 44.4 mph 44.4 mph 32 % 0.0 in 255.0 W/m2 CLR
17:22 27.9 °F 9.7 °F 1002.9 in West 50.0 mph 50.0 mph 32 % 0.0 in 271.0 W/m2 CLR
17:27 27.7 °F 10.0 °F 1002.9 in WNW 27.8 mph 27.8 mph 33 % 0.0 in 195.0 W/m2 CLR
17:32 27.6 °F 9.9 °F 1003.9 in NW 59.2 mph 59.2 mph 33 % 0.0 in 149.0 W/m2 CLR
17:37 25.0 °F 10.8 °F 1003.9 in North 49.9 mph 49.9 mph 41 % 0.0 in 220.0 W/m2 CLR
17:42 24.1 °F 11.1 °F 1003.9 in NNW 37.0 mph 37.0 mph 44 % 0.0 in 369.0 W/m2 CLR
17:47 24.5 °F 11.1 °F 1003.6 in NNW 42.6 mph 42.6 mph 43 % 0.0 in 708.0 W/m2 CLR
17:52 24.9 °F 11.2 °F 1003.3 in NNW 27.8 mph 27.8 mph 42 % 0.0 in 622.0 W/m2 CLR
17:57 25.2 °F 11.0 °F 1003.3 in NNW 27.8 mph 27.8 mph 41 % 0.0 in 608.0 W/m2 CLR
18:02 25.2 °F 10.6 °F 1002.9 in NW 18.5 mph 18.5 mph 40 % 0.0 in 156.0 W/m2 CLR
18:07 25.3 °F 10.7 °F 1002.9 in NNW 29.6 mph 29.6 mph 40 % 0.0 in 415.0 W/m2 CLR
18:12 25.6 °F 11.0 °F 1002.9 in NW 20.4 mph 20.4 mph 40 % 0.0 in 631.0 W/m2 CLR
18:17 26.1 °F 10.6 °F 1002.9 in NNW 22.2 mph 22.2 mph 38 % 0.0 in 645.0 W/m2 CLR
18:22 26.0 °F 10.6 °F 1002.6 in NW 19.3 mph 19.3 mph 38 % 0.0 in 501.0 W/m2 CLR
18:27 26.1 °F 10.7 °F 1002.6 in NNW 16.1 mph 16.1 mph 38 % 0.0 in 329.0 W/m2 CLR
18:32 26.6 °F 10.7 °F 1002.6 in NW 20.9 mph 20.9 mph 37 % 0.0 in 322.0 W/m2 CLR
18:37 26.5 °F 10.6 °F 1002.6 in NW 20.4 mph 20.4 mph 37 % 0.0 in 269.0 W/m2 CLR
18:42 26.9 °F 10.6 °F 1002.3 in WNW 18.5 mph 18.5 mph 36 % 0.0 in 561.0 W/m2 CLR
18:47 27.4 °F 11.1 °F 1002.3 in NW 22.2 mph 22.2 mph 36 % 0.0 in 476.0 W/m2 CLR
18:52 27.7 °F 10.8 °F 1002.3 in NW 20.9 mph 20.9 mph 35 % 0.0 in 469.0 W/m2 CLR
18:57 27.6 °F 10.8 °F 1002.3 in NW 29.6 mph 29.6 mph 35 % 0.0 in 425.0 W/m2 CLR
18:58 27.6 °F 10.7 °F 1002.3 in NW 25.9 mph 25.9 mph 35 % 0.0 in 429.0 W/m2 CLR
19:03 27.3 °F 10.9 °F 1002.3 in NW 20.4 mph 20.4 mph 36 % 0.0 in 446.0 W/m2 CLR
19:08 27.6 °F 10.7 °F 1002.3 in WNW 24.1 mph 24.1 mph 35 % 0.0 in 466.0 W/m2 CLR
19:13 27.9 °F 11.0 °F 1002.3 in North 14.8 mph 14.8 mph 35 % 0.0 in 417.0 W/m2 CLR
19:18 27.9 °F 11.0 °F 1002.3 in NNW 14.8 mph 16.1 mph 35 % 0.0 in 376.0 W/m2 CLR
19:23 28.0 °F 9.8 °F 1002.6 in NW 35.2 mph 35.2 mph 32 % 0.0 in 323.0 W/m2 CLR
19:29 27.6 °F 9.8 °F 1002.6 in NW 33.3 mph 33.3 mph 33 % 0.0 in 352.0 W/m2 CLR
19:34 27.6 °F 9.9 °F 1002.6 in WNW 33.8 mph 33.8 mph 33 % 0.0 in 336.0 W/m2 CLR
19:39 27.6 °F 10.8 °F 1002.6 in WNW 35.2 mph 35.2 mph 35 % 0.0 in 283.0 W/m2 CLR
19:44 27.5 °F 10.7 °F 1002.6 in West 37.0 mph 37.0 mph 35 % 0.0 in 258.0 W/m2 CLR
19:48 27.6 °F 10.7 °F 1002.6 in WNW 27.8 mph 29.3 mph 35 % 0.0 in 239.0 W/m2 CLR
19:54 27.4 °F 10.6 °F 1002.6 in WNW 31.5 mph 31.5 mph 35 % 0.0 in 227.0 W/m2 CLR
19:59 27.3 °F 10.5 °F 1002.6 in WNW 40.2 mph 40.2 mph 35 % 0.0 in 33.0 W/m2 CLR
20:04 27.0 °F 10.2 °F 1002.6 in West 29.6 mph 29.6 mph 35 % 0.0 in 199.0 W/m2 FEW
20:14 27.2 °F 9.6 °F 1002.9 in WNW 42.6 mph 42.6 mph 33 % 0.0 in 185.0 W/m2 CLR
20:19 27.2 °F 9.9 °F 1002.9 in WNW 44.4 mph 44.4 mph 34 % 0.0 in 162.0 W/m2 CLR
20:24 27.2 °F 10.0 °F 1002.9 in WNW 37.0 mph 37.0 mph 34 % 0.0 in 153.0 W/m2 CLR
20:29 27.1 °F 10.3 °F 1002.9 in NNW 35.2 mph 35.2 mph 35 % 0.0 in 49.0 W/m2 CLR
20:34 26.8 °F 10.5 °F 1002.9 in NW 33.3 mph 33.3 mph 36 % 0.0 in 40.0 W/m2 SCT
20:39 26.6 °F 10.7 °F 1002.9 in WNW 40.7 mph 40.7 mph 37 % 0.0 in 46.0 W/m2 SCT
20:44 26.6 °F 10.7 °F 1003.3 in WNW 31.5 mph 31.5 mph 37 % 0.0 in 72.0 W/m2 FEW
20:49 26.6 °F 10.7 °F 1003.3 in WNW 25.9 mph 25.9 mph 37 % 0.0 in 54.0 W/m2 SCT
20:54 26.6 °F 10.7 °F 1003.3 in WNW 31.5 mph 31.5 mph 37 % 0.0 in 58.0 W/m2 SCT
20:59 26.6 °F 10.3 °F 1003.3 in NW 32.2 mph 32.2 mph 36 % 0.0 in 54.0 W/m2 SCT
21:04 26.5 °F 9.8 °F 1003.6 in NNW 20.4 mph 20.4 mph 35 % 0.0 in 44.0 W/m2 BKN
21:09 26.4 °F 7.9 °F 1003.6 in WNW 41.8 mph 41.8 mph 31 % 0.0 in 26.0 W/m2 BKN
21:14 26.2 °F 7.3 °F 1003.6 in WNW 37.0 mph 37.0 mph 30 % 0.0 in 21.0 W/m2 BKN
21:19 26.1 °F 7.1 °F 1003.6 in NW 40.7 mph 40.7 mph 30 % 0.0 in 16.0 W/m2 BKN
21:24 25.9 °F 7.1 °F 1003.9 in NNW 30.6 mph 30.6 mph 30 % 0.0 in 11.0 W/m2 BKN
21:29 25.8 °F 6.9 °F 1003.9 in West 31.5 mph 31.5 mph 30 % 0.0 in 7.0 W/m2 BKN
21:34 25.7 °F 6.8 °F 1003.6 in NW 42.6 mph 42.6 mph 30 % 0.0 in 5.0 W/m2 OVC
21:39 25.6 °F 6.7 °F 1003.9 in WNW 22.2 mph 22.2 mph 30 % 0.0 in 0.0 W/m2 OVC
21:44 25.4 °F 6.6 °F 1003.9 in NW 31.5 mph 31.5 mph 30 % 0.0 in 0.0 W/m2 OVC
21:49 25.3 °F 6.0 °F 1004.3 in NW 18.5 mph 18.5 mph 29 % 0.0 in 0.0 W/m2 CLR
21:54 25.2 °F 5.9 °F 1004.3 in NW 29.6 mph 29.6 mph 29 % 0.0 in 0.0 W/m2 CLR
21:59 25.1 °F 5.3 °F 1004.3 in NW 33.8 mph 33.8 mph 28 % 0.0 in 0.0 W/m2 CLR
22:04 25.1 °F 5.3 °F 1004.3 in NW 30.6 mph 30.6 mph 28 % 0.0 in 0.0 W/m2 CLR
22:09 24.9 °F 5.7 °F 1004.6 in NW 29.6 mph 29.6 mph 29 % 0.0 in 0.0 W/m2 CLR
22:14 24.9 °F 5.6 °F 1004.6 in NW 24.1 mph 24.1 mph 29 % 0.0 in 0.0 W/m2 CLR
22:19 24.8 °F 5.6 °F 1004.6 in West 31.5 mph 31.5 mph 29 % 0.0 in 0.0 W/m2 CLR
22:24 24.7 °F 5.5 °F 1004.6 in WNW 25.9 mph 25.9 mph 29 % 0.0 in 0.0 W/m2 CLR
22:29 24.7 °F 5.4 °F 1005.0 in NW 22.2 mph 22.2 mph 29 % 0.0 in 0.0 W/m2 CLR
22:34 24.5 °F 5.8 °F 1005.0 in NW 24.1 mph 24.1 mph 30 % 0.0 in 0.0 W/m2 CLR
22:39 24.4 °F 5.7 °F 1005.0 in WNW 31.5 mph 31.5 mph 30 % 0.0 in 0.0 W/m2 CLR
22:44 24.5 °F 5.8 °F 1005.0 in WNW 24.1 mph 24.1 mph 30 % 0.0 in 0.0 W/m2 CLR
22:49 24.4 °F 5.7 °F 1005.0 in WNW 29.6 mph 29.6 mph 30 % 0.0 in 0.0 W/m2 CLR
22:54 24.5 °F 5.8 °F 1005.3 in West 29.6 mph 29.6 mph 30 % 0.0 in 0.0 W/m2 CLR
22:59 24.4 °F 5.7 °F 1005.3 in West 22.2 mph 22.2 mph 30 % 0.0 in 0.0 W/m2 CLR
23:04 24.4 °F 5.7 °F 1005.3 in West 19.3 mph 19.3 mph 30 % 0.0 in 0.0 W/m2 CLR
23:09 24.3 °F 6.1 °F 1005.3 in West 27.8 mph 27.8 mph 31 % 0.0 in 0.0 W/m2 CLR
23:14 24.2 °F 5.9 °F 1005.6 in West 20.4 mph 20.4 mph 31 % 0.0 in 0.0 W/m2 CLR
23:15 24.2 °F 5.9 °F 1005.3 in WNW 18.5 mph 18.5 mph 31 % 0.0 in 0.0 W/m2 CLR
23:20 24.0 °F 6.3 °F 1005.6 in WNW 20.4 mph 20.4 mph 32 % 0.0 in 0.0 W/m2 CLR
23:25 23.9 °F 6.2 °F 1005.6 in WNW 27.8 mph 27.8 mph 32 % 0.0 in 0.0 W/m2 CLR
23:30 23.7 °F 6.9 °F 1006.0 in NNW 33.8 mph 33.8 mph 34 % 0.0 in 0.0 W/m2 CLR
23:35 23.6 °F 8.4 °F 1006.0 in NNW 33.3 mph 33.3 mph 38 % 0.0 in 0.0 W/m2 CLR
23:40 23.3 °F 9.7 °F 1006.0 in NNW 33.3 mph 33.3 mph 42 % 0.0 in 0.0 W/m2 CLR
23:45 22.9 °F 10.4 °F 1006.0 in WNW 29.6 mph 29.6 mph 45 % 0.0 in 0.0 W/m2 CLR
23:50 22.6 °F 10.7 °F 1006.3 in NW 25.9 mph 25.9 mph 47 % 0.0 in 0.0 W/m2 CLR
23:55 22.3 °F 11.4 °F 1006.3 in NW 20.9 mph 20.9 mph 50 % 0.0 in 0.0 W/m2 CLR
Lo Temps de Massalio
Compliments of Weather Underground - 1.25 mb